Time;durP1;ratioP1;P1;durP2;ratioP2;P2;SDS_P1;SDS_P2;PMS_P1;PMS_P2;Temp;Humidity;BMP_temperature;BMP_pressure;BME280_temperature;BME280_humidity;BME280_pressure;Samples;Min_cycle;Max_cycle;Signal;HPM_P1;HPM_P2
2021/09/09 00:01:23;;;;;;;42.80;19.75;;;;;;;24.11;62.97;100589.91;5069407;28;20050;-61
2021/09/09 00:03:49;;;;;;;35.42;19.02;;;;;;;24.10;62.65;100593.66;5064729;28;20041;-61
2021/09/09 00:06:14;;;;;;;37.00;17.77;;;;;;;24.10;62.68;100583.75;5061289;28;20072;-60
2021/09/09 00:08:40;;;;;;;40.47;19.48;;;;;;;24.11;62.75;100592.59;5069951;28;20039;-61
2021/09/09 00:11:06;;;;;;;37.40;17.20;;;;;;;24.11;62.72;100590.72;5070174;28;20104;-60
2021/09/09 00:13:31;;;;;;;38.65;17.60;;;;;;;24.11;62.88;100593.41;5050288;28;20056;-61
2021/09/09 00:15:57;;;;;;;36.47;17.83;;;;;;;24.11;62.88;100598.78;5070472;28;20352;-61
2021/09/09 00:18:23;;;;;;;38.63;18.05;;;;;;;24.11;62.78;100590.72;5070151;28;20090;-60
2021/09/09 00:20:48;;;;;;;36.72;18.00;;;;;;;24.11;62.97;100596.09;5035596;28;20028;-62
2021/09/09 00:23:14;;;;;;;33.78;16.13;;;;;;;24.12;62.80;100599.59;5051257;28;20095;-60
2021/09/09 00:25:39;;;;;;;30.88;16.70;;;;;;;24.12;63.15;100591.56;5067893;28;20036;-60
2021/09/09 00:28:05;;;;;;;32.63;16.40;;;;;;;24.10;62.74;100586.44;5068927;28;20472;-62
2021/09/09 00:30:30;;;;;;;33.72;16.48;;;;;;;24.11;62.93;100584.56;5070132;28;20549;-60
2021/09/09 00:32:56;;;;;;;32.50;16.80;;;;;;;24.12;62.91;100591.56;5052305;28;20123;-61
2021/09/09 00:35:21;;;;;;;31.73;16.70;;;;;;;24.11;63.08;100588.06;5065390;28;20043;-61
2021/09/09 00:37:47;;;;;;;35.45;17.08;;;;;;;24.11;62.86;100593.41;5051439;28;20048;-61
2021/09/09 00:40:13;;;;;;;31.90;16.77;;;;;;;24.11;62.96;100589.91;5069844;28;20044;-60
2021/09/09 00:42:40;;;;;;;35.13;16.88;;;;;;;24.11;63.02;100592.59;5069352;28;20116;-60
2021/09/09 00:45:06;;;;;;;32.65;16.33;;;;;;;24.11;63.11;100585.38;5064280;28;20062;-61
2021/09/09 00:47:32;;;;;;;32.85;16.13;;;;;;;24.12;62.99;100586.19;5069354;28;20071;-61
2021/09/09 00:49:57;;;;;;;30.70;16.15;;;;;;;24.10;63.28;100582.94;5069653;28;20064;-61
2021/09/09 00:52:23;;;;;;;33.63;16.88;;;;;;;24.11;63.38;100579.19;5068413;28;20045;-61
2021/09/09 00:54:49;;;;;;;31.25;15.15;;;;;;;24.10;63.26;100581.06;5062199;28;20029;-60
2021/09/09 00:57:19;;;;;;;28.95;16.00;;;;;;;24.12;63.09;100580.84;5051144;28;20037;-61
2021/09/09 00:59:45;;;;;;;28.55;14.68;;;;;;;24.11;63.27;100574.66;5069582;28;20090;-60
2021/09/09 01:02:11;;;;;;;28.25;15.43;;;;;;;24.11;63.27;100573.84;5068418;28;20044;-61
2021/09/09 01:04:36;;;;;;;28.08;15.25;;;;;;;24.11;62.81;100579.19;5058199;28;20158;-60
2021/09/09 01:07:02;;;;;;;28.85;15.07;;;;;;;24.11;63.29;100571.16;5066684;28;20115;-61
2021/09/09 01:09:27;;;;;;;28.92;15.48;;;;;;;24.12;63.42;100572.78;5069192;28;20037;-61
2021/09/09 01:11:53;;;;;;;31.83;14.75;;;;;;;24.12;63.33;100572.78;5068666;28;20043;-60
2021/09/09 01:14:19;;;;;;;27.85;14.57;;;;;;;24.11;63.11;100569.28;5043294;28;20037;-61
2021/09/09 01:16:46;;;;;;;26.23;13.80;;;;;;;24.12;63.36;100562.06;5063494;28;20402;-61
2021/09/09 01:19:13;;;;;;;27.80;14.50;;;;;;;24.11;63.38;100568.47;5069321;28;20036;-61
2021/09/09 01:21:38;;;;;;;25.73;14.35;;;;;;;24.11;63.23;100565.81;5068642;28;20028;-61
2021/09/09 01:24:15;;;;;;;30.60;15.77;;;;;;;24.09;63.22;100554.50;5067623;28;20094;-61
2021/09/09 01:26:56;;;;;;;25.08;13.40;;;;;;;24.07;63.37;100562.78;5063276;28;20042;-60
2021/09/09 01:29:27;;;;;;;30.02;14.43;;;;;;;24.10;63.25;100556.94;5050980;28;20375;-60
2021/09/09 01:31:53;;;;;;;26.10;14.73;;;;;;;24.11;63.23;100557.75;5051354;28;20051;-61
2021/09/09 01:34:19;;;;;;;27.55;15.00;;;;;;;24.11;63.46;100552.41;5065405;28;20407;-60
2021/09/09 01:36:45;;;;;;;23.38;13.00;;;;;;;24.09;63.25;100555.31;5068416;28;20040;-60
2021/09/09 01:39:11;;;;;;;27.50;14.02;;;;;;;24.11;63.19;100557.75;5067968;28;20087;-60
2021/09/09 01:41:37;;;;;;;25.98;13.48;;;;;;;24.11;63.24;100552.41;5051192;28;20454;-61
2021/09/09 01:44:04;;;;;;;30.48;14.20;;;;;;;24.10;63.10;100556.13;5064060;28;20112;-61
2021/09/09 01:46:30;;;;;;;25.75;13.77;;;;;;;24.11;63.14;100547.03;5068656;28;20479;-61
2021/09/09 01:48:56;;;;;;;22.98;13.52;;;;;;;24.11;63.20;100541.69;5074504;28;20048;-61
2021/09/09 01:51:22;;;;;;;24.45;13.10;;;;;;;24.10;63.25;100546.22;5060273;28;20028;-61
2021/09/09 01:53:48;;;;;;;21.38;13.40;;;;;;;24.11;63.52;100547.03;5076324;28;20063;-61
2021/09/09 01:56:13;;;;;;;21.63;13.35;;;;;;;24.11;63.34;100544.38;5053276;28;20063;-60
2021/09/09 01:58:40;;;;;;;26.40;13.90;;;;;;;24.10;63.23;100543.53;5057727;28;20044;-62
2021/09/09 02:01:05;;;;;;;25.70;14.07;;;;;;;24.10;63.33;100543.53;5065001;28;20041;-61
2021/09/09 02:03:31;;;;;;;24.80;13.27;;;;;;;24.11;63.37;100541.69;5073926;28;20028;-60
2021/09/09 02:05:56;;;;;;;24.90;13.82;;;;;;;24.11;63.14;100539.00;5071154;28;20146;-61
2021/09/09 02:08:22;;;;;;;20.90;12.48;;;;;;;24.10;63.16;100537.38;5068100;28;20059;-61
2021/09/09 02:10:47;;;;;;;19.70;12.48;;;;;;;24.11;63.39;100537.13;5049670;28;20068;-61
2021/09/09 02:13:13;;;;;;;21.13;12.70;;;;;;;24.10;63.40;100524.78;5070863;28;20044;-61
2021/09/09 02:15:38;;;;;;;23.00;13.27;;;;;;;24.10;63.23;100527.47;5068544;28;20063;-61
2021/09/09 02:18:03;;;;;;;22.80;12.88;;;;;;;24.10;63.28;100521.28;5051388;28;20032;-61
2021/09/09 02:20:29;;;;;;;17.00;10.80;;;;;;;24.11;63.10;100530.97;5077450;28;20037;-60
2021/09/09 02:22:55;;;;;;;21.70;11.95;;;;;;;24.11;63.40;100525.59;5082401;28;20040;-60
2021/09/09 02:25:21;;;;;;;22.02;12.68;;;;;;;24.10;63.27;100524.78;5050181;28;20553;-61
2021/09/09 02:27:46;;;;;;;19.27;11.40;;;;;;;24.11;63.15;100520.25;5081580;28;20084;-61
2021/09/09 02:30:12;;;;;;;20.85;12.13;;;;;;;24.10;63.23;100522.09;5053550;28;20032;-60
2021/09/09 02:32:38;;;;;;;20.20;11.93;;;;;;;24.10;63.08;100513.25;5088270;28;20123;-60
2021/09/09 02:35:04;;;;;;;21.60;11.88;;;;;;;24.10;63.33;100521.28;5083017;28;20524;-61
2021/09/09 02:37:29;;;;;;;20.40;11.57;;;;;;;24.09;63.43;100512.44;5076946;28;20041;-61
2021/09/09 02:39:55;;;;;;;19.40;11.85;;;;;;;24.10;63.20;100505.22;5073125;28;20041;-61
2021/09/09 02:42:20;;;;;;;20.67;11.63;;;;;;;24.11;63.19;100506.84;5069675;28;20396;-61
2021/09/09 02:44:46;;;;;;;19.30;11.10;;;;;;;24.09;63.16;100498.22;5042181;28;20041;-61
2021/09/09 02:47:12;;;;;;;19.40;12.10;;;;;;;24.10;63.19;100497.19;5087791;28;20040;-61
2021/09/09 02:49:37;;;;;;;19.73;12.07;;;;;;;24.10;63.10;100498.00;5078175;28;20144;-61
2021/09/09 02:52:04;;;;;;;21.05;12.55;;;;;;;24.09;63.09;100488.31;5080277;28;20042;-61
2021/09/09 02:54:29;;;;;;;19.92;12.13;;;;;;;24.10;63.16;100491.81;5092366;28;20039;-61
2021/09/09 02:56:55;;;;;;;18.10;11.15;;;;;;;24.10;63.40;100492.63;5071879;28;20040;-61
2021/09/09 02:59:20;;;;;;;17.88;11.10;;;;;;;24.09;63.14;100485.66;5068646;28;20037;-61
2021/09/09 03:01:46;;;;;;;18.20;10.98;;;;;;;24.10;63.31;100489.13;5052154;28;20515;-61
2021/09/09 03:04:11;;;;;;;16.23;10.35;;;;;;;24.09;63.22;100492.88;5055677;28;20546;-60
2021/09/09 03:06:37;;;;;;;17.13;10.10;;;;;;;24.09;63.22;100490.19;5091631;28;20615;-60
2021/09/09 03:09:02;;;;;;;15.77;10.27;;;;;;;24.08;63.31;100483.19;5089827;28;20040;-61
2021/09/09 03:11:28;;;;;;;14.75;9.68;;;;;;;24.10;63.26;100486.47;5091535;28;20032;-61
2021/09/09 03:13:54;;;;;;;15.00;9.75;;;;;;;24.10;63.12;100486.47;5091299;28;20104;-61
2021/09/09 03:16:19;;;;;;;16.98;10.95;;;;;;;24.08;63.07;100481.34;5091721;28;20324;-61
2021/09/09 03:18:44;;;;;;;15.43;9.63;;;;;;;24.09;63.13;100476.78;5089344;28;20470;-60
2021/09/09 03:21:10;;;;;;;16.75;11.13;;;;;;;24.09;63.38;100490.19;5071127;28;20114;-60
2021/09/09 03:23:35;;;;;;;17.83;11.05;;;;;;;24.09;62.91;100484.81;5091451;28;20471;-60
2021/09/09 03:26:01;;;;;;;13.65;9.65;;;;;;;24.07;63.35;100486.94;5091302;28;20036;-60
2021/09/09 03:28:26;;;;;;;14.35;10.07;;;;;;;24.07;63.24;100482.38;5084119;28;20122;-61
2021/09/09 03:30:52;;;;;;;18.02;11.00;;;;;;;24.08;63.34;100477.84;5091570;28;20567;-61
2021/09/09 03:33:17;;;;;;;15.32;10.18;;;;;;;24.07;63.20;100478.91;5056364;28;20028;-60
2021/09/09 03:35:43;;;;;;;13.38;9.70;;;;;;;24.07;63.15;100478.91;5091701;28;20039;-61
2021/09/09 03:38:09;;;;;;;17.83;10.63;;;;;;;24.07;63.12;100478.91;5080866;28;20118;-61
2021/09/09 03:40:36;;;;;;;13.82;9.60;;;;;;;24.07;63.05;100481.56;5091281;28;20040;-60
2021/09/09 03:43:02;;;;;;;13.73;9.45;;;;;;;24.06;63.08;100471.91;5083721;28;20097;-61
2021/09/09 03:45:28;;;;;;;14.77;10.05;;;;;;;24.06;63.10;100471.91;5082282;28;20032;-60
2021/09/09 03:47:53;;;;;;;14.23;9.77;;;;;;;24.06;63.07;100471.91;5049334;28;20399;-60
2021/09/09 03:50:19;;;;;;;15.02;10.68;;;;;;;24.06;63.17;100463.88;5084022;28;20452;-61
2021/09/09 03:52:44;;;;;;;12.18;9.95;;;;;;;24.06;63.21;100463.88;5067468;28;20488;-61
2021/09/09 03:55:10;;;;;;;15.38;10.38;;;;;;;24.05;63.05;100455.00;5075149;28;20112;-60
2021/09/09 03:57:36;;;;;;;15.75;9.30;;;;;;;24.05;63.21;100446.97;5077972;28;20472;-60
2021/09/09 04:00:03;;;;;;;15.10;10.00;;;;;;;24.06;63.28;100440.56;5070726;28;20036;-61
2021/09/09 04:02:28;;;;;;;14.23;9.82;;;;;;;24.06;63.00;100442.44;5064663;28;20047;-60
2021/09/09 04:04:54;;;;;;;14.45;10.00;;;;;;;24.05;63.16;100435.44;5058966;28;20150;-60
2021/09/09 04:07:19;;;;;;;15.75;10.88;;;;;;;24.06;63.24;100432.53;5069744;28;20125;-61
2021/09/09 04:09:45;;;;;;;13.05;9.50;;;;;;;24.06;63.45;100434.38;5086551;28;20044;-61
2021/09/09 04:12:10;;;;;;;14.13;9.48;;;;;;;24.06;63.20;100431.72;5042797;28;20045;-61
2021/09/09 04:14:35;;;;;;;12.88;9.00;;;;;;;24.06;63.30;100426.34;5057139;28;20785;-60
2021/09/09 04:17:01;;;;;;;14.57;10.13;;;;;;;24.05;63.24;100420.19;5070333;28;20067;-61
2021/09/09 04:19:26;;;;;;;14.52;9.85;;;;;;;24.06;63.20;100418.31;5051774;28;20047;-61
2021/09/09 04:21:53;;;;;;;14.38;10.13;;;;;;;24.05;63.03;100412.13;5070049;28;20082;-60
2021/09/09 04:24:20;;;;;;;16.77;10.48;;;;;;;24.05;63.15;100409.47;5069298;28;20041;-61
2021/09/09 04:26:47;;;;;;;13.32;10.50;;;;;;;24.06;63.20;100407.59;5052205;28;20497;-61
2021/09/09 04:29:12;;;;;;;13.65;9.60;;;;;;;24.06;63.02;100412.94;5089252;28;20467;-61
2021/09/09 04:31:38;;;;;;;15.15;9.90;;;;;;;24.05;62.91;100409.47;5057257;28;20066;-60
2021/09/09 04:34:04;;;;;;;15.82;10.77;;;;;;;24.04;63.18;100405.16;5064710;28;20044;-61
2021/09/09 04:36:29;;;;;;;14.18;9.60;;;;;;;24.06;63.06;100404.91;5069287;28;20808;-61
2021/09/09 04:38:55;;;;;;;13.48;9.80;;;;;;;24.05;63.31;100406.78;5069818;28;20123;-60
2021/09/09 04:41:20;;;;;;;14.60;10.27;;;;;;;24.03;62.92;100406.22;5086644;28;20052;-60
2021/09/09 04:43:46;;;;;;;13.70;10.15;;;;;;;24.04;63.22;100410.50;5085577;28;20039;-61
2021/09/09 04:46:12;;;;;;;13.45;10.48;;;;;;;24.04;63.07;100407.03;5075920;28;20082;-61
2021/09/09 04:48:38;;;;;;;12.18;8.98;;;;;;;24.04;62.98;100399.78;5090447;28;20023;-61
2021/09/09 04:51:03;;;;;;;13.68;9.40;;;;;;;24.04;62.84;100401.66;5072143;28;20066;-60
2021/09/09 04:53:29;;;;;;;15.07;10.73;;;;;;;24.04;63.34;100398.97;5083594;28;20032;-61
2021/09/09 04:55:55;;;;;;;15.93;10.70;;;;;;;24.04;63.21;100405.16;5074303;28;20036;-61
2021/09/09 04:58:21;;;;;;;13.88;9.85;;;;;;;24.04;63.08;100396.31;5050681;28;20032;-60
2021/09/09 05:00:46;;;;;;;12.75;9.55;;;;;;;24.05;63.31;100400.59;5084925;28;20394;-62
2021/09/09 05:03:11;;;;;;;12.00;9.15;;;;;;;24.04;63.25;100388.25;5072324;28;20036;-62
2021/09/09 05:05:37;;;;;;;14.32;10.73;;;;;;;24.03;63.10;100397.34;5086022;28;20024;-61
2021/09/09 05:08:03;;;;;;;14.00;9.88;;;;;;;24.03;63.12;100390.13;5079629;28;20055;-60
2021/09/09 05:10:28;;;;;;;15.43;10.63;;;;;;;24.04;63.11;100390.94;5083132;28;20548;-61
2021/09/09 05:12:54;;;;;;;15.32;10.32;;;;;;;24.03;62.99;100389.31;5070266;28;20123;-61
2021/09/09 05:15:19;;;;;;;14.75;10.55;;;;;;;24.03;62.94;100394.69;5082256;28;20443;-61
2021/09/09 05:17:45;;;;;;;13.45;10.05;;;;;;;24.03;63.08;100392.00;5074579;28;20198;-61
2021/09/09 05:20:10;;;;;;;13.95;10.15;;;;;;;24.03;62.97;100390.13;5078592;28;20382;-61
2021/09/09 05:22:36;;;;;;;13.10;9.90;;;;;;;24.03;63.11;100392.00;5080447;28;20044;-60
2021/09/09 05:25:03;;;;;;;13.00;9.75;;;;;;;24.03;62.97;100394.69;5066981;28;20028;-60
2021/09/09 05:27:29;;;;;;;15.27;10.00;;;;;;;24.03;62.93;100398.16;5041245;28;20139;-61
2021/09/09 05:29:55;;;;;;;14.50;9.95;;;;;;;24.03;62.93;100394.69;5076108;28;20135;-61
2021/09/09 05:32:20;;;;;;;13.25;10.43;;;;;;;24.03;63.04;100397.34;5088804;28;20089;-61
2021/09/09 05:34:45;;;;;;;14.07;10.13;;;;;;;24.03;63.07;100400.03;5086844;28;20471;-61
2021/09/09 05:37:11;;;;;;;15.90;11.60;;;;;;;24.02;63.03;100401.09;5087116;28;20479;-60
2021/09/09 05:39:36;;;;;;;14.73;10.52;;;;;;;24.02;62.98;100401.91;5080745;28;20037;-62
2021/09/09 05:42:02;;;;;;;14.02;9.98;;;;;;;24.03;63.10;100402.72;5052799;28;20032;-63
2021/09/09 05:44:27;;;;;;;14.40;10.02;;;;;;;24.03;63.08;100410.75;5057276;28;20043;-61
2021/09/09 05:46:53;;;;;;;12.82;9.60;;;;;;;24.02;63.09;100406.44;5057270;28;20035;-61
2021/09/09 05:49:18;;;;;;;15.60;10.40;;;;;;;24.02;63.24;100403.75;5085802;28;20039;-61
2021/09/09 05:51:44;;;;;;;17.60;11.65;;;;;;;24.02;63.32;100407.25;5078255;28;20116;-61
2021/09/09 05:54:09;;;;;;;16.33;11.32;;;;;;;24.03;63.33;100402.72;5076303;28;20194;-61
2021/09/09 05:56:35;;;;;;;15.75;11.07;;;;;;;24.02;63.46;100401.09;5049715;28;20131;-61
2021/09/09 05:59:00;;;;;;;16.52;11.50;;;;;;;24.02;63.04;100409.13;5071578;28;20043;-61
2021/09/09 06:01:28;;;;;;;13.35;10.57;;;;;;;24.02;63.23;100406.44;5085747;28;20025;-61
2021/09/09 06:03:55;;;;;;;16.27;10.93;;;;;;;24.02;63.18;100409.13;5078034;28;20090;-61
2021/09/09 06:06:21;;;;;;;15.20;10.57;;;;;;;24.04;63.07;100407.03;5073437;28;20491;-61
2021/09/09 06:08:47;;;;;;;16.58;11.48;;;;;;;24.03;63.14;100410.75;5062981;28;20044;-61
2021/09/09 06:11:12;;;;;;;15.73;11.23;;;;;;;24.02;63.38;100407.25;5068466;28;20040;-61
2021/09/09 06:13:38;;;;;;;15.25;11.13;;;;;;;24.03;63.35;100405.41;5060361;28;20041;-61
2021/09/09 06:16:04;;;;;;;15.32;11.43;;;;;;;24.03;63.19;100403.53;5065976;28;20055;-61
2021/09/09 06:18:30;;;;;;;14.80;10.93;;;;;;;24.03;63.37;100408.88;5059101;28;20044;-61
2021/09/09 06:20:55;;;;;;;13.68;11.07;;;;;;;24.03;63.16;100405.41;5068292;28;20032;-61
2021/09/09 06:23:21;;;;;;;15.35;11.05;;;;;;;24.03;62.94;100400.84;5067043;28;20051;-61
2021/09/09 06:25:46;;;;;;;15.18;10.73;;;;;;;24.04;63.16;100407.03;5067500;28;20475;-62
2021/09/09 06:28:12;;;;;;;14.63;11.10;;;;;;;24.02;63.47;100407.25;5065102;28;20047;-61
2021/09/09 06:30:37;;;;;;;15.48;11.10;;;;;;;24.03;63.12;100398.16;5068103;28;20116;-61
2021/09/09 06:33:03;;;;;;;13.60;9.68;;;;;;;24.03;63.26;100400.03;5067308;28;20049;-62
2021/09/09 06:35:31;;;;;;;13.95;9.35;;;;;;;24.03;63.08;100395.50;5059845;28;20032;-62
2021/09/09 06:37:57;;;;;;;13.60;9.48;;;;;;;24.02;63.27;100393.88;5067320;28;20112;-62
2021/09/09 06:40:23;;;;;;;11.95;9.35;;;;;;;24.02;62.92;100401.91;5068322;28;20112;-64
2021/09/09 06:42:48;;;;;;;14.15;10.13;;;;;;;24.03;63.25;100400.03;5060964;28;20107;-63
2021/09/09 06:45:14;;;;;;;12.07;9.15;;;;;;;24.04;63.16;100401.66;5064994;28;20626;-63
2021/09/09 06:47:40;;;;;;;18.52;9.43;;;;;;;24.02;63.20;100395.72;5064974;28;20029;-62
2021/09/09 06:50:07;;;;;;;15.23;9.55;;;;;;;24.02;63.20;100393.88;5065618;28;20045;-63
2021/09/09 06:52:32;;;;;;;12.43;8.63;;;;;;;24.03;63.33;100406.22;5067630;28;20515;-62
2021/09/09 06:54:58;;;;;;;16.08;8.82;;;;;;;24.02;63.23;100401.91;5072633;28;20029;-62
2021/09/09 06:57:23;;;;;;;15.60;8.95;;;;;;;24.02;63.36;100401.91;5061845;28;20036;-62
2021/09/09 06:59:48;;;;;;;12.90;8.50;;;;;;;24.01;63.33;100397.59;5067336;28;20031;-63
2021/09/09 07:02:14;;;;;;;12.90;8.10;;;;;;;24.02;63.42;100396.53;5065139;28;20128;-62
2021/09/09 07:04:40;;;;;;;16.55;8.13;;;;;;;24.02;63.55;100399.22;5067708;28;20118;-62
2021/09/09 07:07:05;;;;;;;14.20;8.20;;;;;;;24.02;63.64;100407.25;5054704;28;20083;-62
2021/09/09 07:09:31;;;;;;;11.80;7.50;;;;;;;24.03;63.45;100408.06;5047085;28;20056;-62
2021/09/09 07:11:56;;;;;;;11.98;7.57;;;;;;;24.02;63.54;100401.09;5026076;28;20029;-62
2021/09/09 07:14:22;;;;;;;11.85;6.65;;;;;;;24.02;63.54;100407.25;5046739;28;20107;-63
2021/09/09 07:16:47;;;;;;;10.77;6.65;;;;;;;24.02;63.60;100404.59;5047335;28;20039;-62
2021/09/09 07:19:13;;;;;;;12.60;6.47;;;;;;;24.03;63.69;100410.75;5029005;28;20026;-63
2021/09/09 07:21:39;;;;;;;9.65;6.95;;;;;;;24.03;63.74;100410.75;5046439;28;20404;-62
2021/09/09 07:24:05;;;;;;;10.50;6.35;;;;;;;24.02;63.62;100409.94;5036375;28;20065;-62
2021/09/09 07:26:31;;;;;;;10.50;6.20;;;;;;;24.03;63.54;100408.06;5043467;28;20451;-63
2021/09/09 07:28:56;;;;;;;10.77;6.18;;;;;;;24.03;63.82;100410.75;5045715;28;20037;-62
2021/09/09 07:31:22;;;;;;;9.90;6.50;;;;;;;24.02;63.68;100404.59;5047082;28;20067;-63
2021/09/09 07:33:48;;;;;;;8.98;5.53;;;;;;;24.03;64.00;100402.72;5046200;28;20140;-63
2021/09/09 07:36:13;;;;;;;9.77;6.10;;;;;;;24.03;63.91;100402.72;5045610;28;20037;-63
2021/09/09 07:38:39;;;;;;;8.55;5.13;;;;;;;24.03;63.90;100408.88;5030258;28;20448;-62
2021/09/09 07:41:05;;;;;;;9.30;5.22;;;;;;;24.03;64.13;100413.44;5049639;28;20040;-63
2021/09/09 07:43:30;;;;;;;9.23;5.32;;;;;;;24.03;64.17;100400.84;5034249;28;20348;-62
2021/09/09 07:45:56;;;;;;;7.32;4.72;;;;;;;24.04;64.46;100407.03;5058314;28;20473;-63
2021/09/09 07:48:22;;;;;;;7.57;4.75;;;;;;;24.04;64.59;100407.03;5049656;28;20041;-63
2021/09/09 07:50:48;;;;;;;9.02;5.28;;;;;;;24.03;64.69;100408.88;5045547;28;20043;-62
2021/09/09 07:53:14;;;;;;;13.27;5.97;;;;;;;24.04;64.73;100407.03;5052673;28;20037;-64
2021/09/09 07:55:40;;;;;;;15.02;6.28;;;;;;;24.05;65.09;100414.00;5050214;28;20025;-62
2021/09/09 07:58:05;;;;;;;8.50;4.65;;;;;;;24.05;65.03;100403.28;5060957;28;20160;-62
2021/09/09 08:00:31;;;;;;;13.13;5.10;;;;;;;24.05;65.32;100408.66;5053408;28;20048;-62
2021/09/09 08:02:57;;;;;;;11.13;5.20;;;;;;;24.05;65.06;100403.28;5042260;28;20048;-62
2021/09/09 08:05:22;;;;;;;9.82;4.53;;;;;;;24.04;64.84;100415.06;5045631;28;20029;-62
2021/09/09 08:07:48;;;;;;;13.65;4.97;;;;;;;24.04;64.80;100410.50;5056458;28;20106;-63
2021/09/09 08:10:17;;;;;;;10.38;4.93;;;;;;;24.04;64.85;100407.03;5057810;28;20444;-63
2021/09/09 08:12:44;;;;;;;12.52;5.18;;;;;;;24.03;64.81;100406.22;5050980;28;20025;-62
2021/09/09 08:15:11;;;;;;;10.55;4.93;;;;;;;24.04;64.70;100407.03;5070748;28;20033;-62
2021/09/09 08:17:37;;;;;;;12.43;5.22;;;;;;;24.05;64.72;100411.31;5066233;28;20048;-63
2021/09/09 08:20:04;;;;;;;8.93;4.65;;;;;;;24.03;64.60;100410.75;5060449;28;20051;-62
2021/09/09 08:22:29;;;;;;;10.65;4.30;;;;;;;24.03;64.73;100416.13;5055827;28;20044;-62
2021/09/09 08:24:55;;;;;;;8.65;4.55;;;;;;;24.03;64.53;100418.78;5054969;28;20046;-62
2021/09/09 08:27:22;;;;;;;9.50;4.50;;;;;;;24.04;64.58;100418.56;5057746;28;20120;-62
2021/09/09 08:29:47;;;;;;;9.60;5.00;;;;;;;24.03;64.74;100413.44;5056232;28;20060;-62
2021/09/09 08:32:13;;;;;;;16.25;4.45;;;;;;;24.03;64.55;100418.78;5070633;28;20139;-62
2021/09/09 08:34:39;;;;;;;8.30;4.65;;;;;;;24.02;64.48;100414.47;5061728;28;20036;-62
2021/09/09 08:37:04;;;;;;;9.55;4.53;;;;;;;24.03;64.45;100413.44;5039953;28;20039;-62
2021/09/09 08:39:30;;;;;;;8.52;4.22;;;;;;;24.02;64.30;100414.47;5017012;28;20039;-62
2021/09/09 08:41:55;;;;;;;9.20;4.22;;;;;;;24.01;64.33;100407.50;5069375;28;20059;-62
2021/09/09 08:44:22;;;;;;;8.00;4.25;;;;;;;24.01;64.15;100416.34;5070497;28;20043;-62
2021/09/09 08:46:50;;;;;;;6.57;4.03;;;;;;;24.01;64.54;100419.03;5041636;28;20025;-62
2021/09/09 08:49:20;;;;;;;7.88;4.05;;;;;;;24.01;64.27;100418.22;5069361;28;20056;-62
2021/09/09 08:51:47;;;;;;;8.05;4.20;;;;;;;24.01;64.53;100428.94;5068593;28;20044;-62
2021/09/09 08:54:12;;;;;;;7.85;4.32;;;;;;;24.01;64.33;100423.56;5069575;28;20041;-62
2021/09/09 08:56:39;;;;;;;7.05;4.13;;;;;;;24.01;64.20;100415.53;5069615;28;20039;-62
2021/09/09 08:59:05;;;;;;;9.32;4.60;;;;;;;24.00;64.36;100416.59;5069390;28;20042;-60
2021/09/09 09:01:30;;;;;;;7.60;4.20;;;;;;;24.00;64.31;100413.91;5067731;28;20036;-61
2021/09/09 09:03:57;;;;;;;6.97;4.22;;;;;;;23.99;64.33;100409.59;5069222;28;20059;-60
2021/09/09 09:06:25;;;;;;;7.35;4.32;;;;;;;24.00;64.57;100411.22;5075551;28;20060;-61
2021/09/09 09:08:58;;;;;;;7.32;4.03;;;;;;;23.98;64.25;100413.31;5089554;28;20036;-61
2021/09/09 09:11:26;;;;;;;5.70;3.90;;;;;;;24.00;64.25;100419.28;5089884;28;20036;-61
2021/09/09 09:13:53;;;;;;;7.35;3.90;;;;;;;23.99;64.27;100420.31;5088886;28;20028;-60
2021/09/09 09:16:21;;;;;;;7.88;4.00;;;;;;;24.00;64.59;100424.63;5089882;28;20109;-60
2021/09/09 09:18:48;;;;;;;6.20;3.55;;;;;;;24.01;64.38;100418.22;5089445;28;20032;-63
2021/09/09 09:21:14;;;;;;;5.20;3.47;;;;;;;24.00;64.46;100411.22;5089130;28;20111;-62
2021/09/09 09:24:00;;;;;;;4.25;2.95;;;;;;;23.95;64.38;100413.78;5089461;28;20047;-62
2021/09/09 09:26:27;;;;;;;5.38;3.15;;;;;;;23.97;64.53;100420.53;5089971;28;20032;-62
2021/09/09 09:28:55;;;;;;;5.40;3.20;;;;;;;23.98;64.23;100418.66;5089106;28;20035;-62
2021/09/09 09:31:29;;;;;;;5.57;2.90;;;;;;;23.98;64.37;100415.97;5060597;28;20058;-62
2021/09/09 09:34:00;;;;;;;5.30;2.55;;;;;;;23.96;64.30;100418.09;5089009;28;20032;-62
2021/09/09 09:36:39;;;;;;;5.35;2.72;;;;;;;23.94;64.70;100421.00;5064632;28;20406;-62
2021/09/09 09:39:12;;;;;;;4.28;2.70;;;;;;;23.96;64.27;100418.09;5064052;28;20480;-63
2021/09/09 09:41:55;;;;;;;3.83;2.30;;;;;;;23.96;64.62;100410.03;5076468;28;20028;-63
2021/09/09 09:44:41;;;;;;;5.83;2.40;;;;;;;23.90;64.51;100415.31;5076683;28;20471;-63
2021/09/09 09:47:19;;;;;;;3.35;2.50;;;;;;;23.93;64.61;100413.19;5065949;28;20127;-62
2021/09/09 09:49:50;;;;;;;4.75;2.33;;;;;;;23.96;64.28;100412.72;5059921;28;20033;-62
2021/09/09 09:52:26;;;;;;;2.97;2.20;;;;;;;23.94;64.52;100412.16;5064826;28;20351;-62
2021/09/09 09:55:00;;;;;;;7.22;2.97;;;;;;;23.94;64.59;100414.81;5088341;28;20028;-62
2021/09/09 09:57:27;;;;;;;4.50;3.20;;;;;;;23.96;64.61;100418.09;5041787;28;20115;-63
2021/09/09 09:59:53;;;;;;;6.82;3.20;;;;;;;23.95;64.55;100419.94;5046152;28;20104;-62
2021/09/09 10:02:19;;;;;;;6.40;3.63;;;;;;;23.97;64.53;100417.84;5084727;28;20107;-62
2021/09/09 10:04:47;;;;;;;5.63;3.38;;;;;;;23.95;64.74;100421.81;5088720;28;20056;-62
2021/09/09 10:07:14;;;;;;;5.60;3.47;;;;;;;23.95;64.60;100414.59;5087890;28;20052;-62
2021/09/09 10:09:41;;;;;;;4.65;3.47;;;;;;;23.95;64.63;100413.78;5088528;28;20035;-62
2021/09/09 10:12:08;;;;;;;4.65;3.40;;;;;;;23.95;64.60;100411.09;5059576;28;20182;-63
2021/09/09 10:14:35;;;;;;;7.72;3.67;;;;;;;23.95;64.93;100405.75;5069659;28;20420;-62
2021/09/09 10:17:01;;;;;;;5.47;3.78;;;;;;;23.95;64.55;100409.22;5062765;28;20037;-62
2021/09/09 10:19:31;;;;;;;4.70;3.70;;;;;;;23.95;65.01;100403.88;5062116;28;20050;-62
2021/09/09 10:22:14;;;;;;;4.55;3.45;;;;;;;23.92;64.85;100400.84;5064783;28;20614;-62
2021/09/09 10:24:48;;;;;;;6.38;3.53;;;;;;;23.96;64.82;100402.00;5087188;28;20035;-62
2021/09/09 10:27:42;;;;;;;6.68;3.90;;;;;;;23.91;64.85;100402.72;5087821;28;20647;-62
2021/09/09 10:30:19;;;;;;;6.53;3.63;;;;;;;23.93;64.92;100403.31;5058581;28;20049;-62
2021/09/09 10:32:52;;;;;;;5.80;4.13;;;;;;;23.94;65.01;100401.44;5060606;28;20478;-62
2021/09/09 10:35:17;;;;;;;5.40;3.95;;;;;;;23.94;64.93;100396.88;5088362;28;20058;-62
2021/09/09 10:37:54;;;;;;;4.60;3.65;;;;;;;23.93;64.91;100391.78;5058273;28;20028;-62
2021/09/09 10:40:31;;;;;;;4.97;3.83;;;;;;;23.92;64.98;100393.63;5088383;28;20027;-63
2021/09/09 10:43:10;;;;;;;5.78;3.88;;;;;;;23.92;64.92;100382.09;5087273;28;20074;-62
2021/09/09 10:45:37;;;;;;;5.03;3.92;;;;;;;23.94;65.04;100391.53;5088337;28;20124;-63
2021/09/09 10:48:24;;;;;;;5.95;3.97;;;;;;;23.93;64.94;100389.09;5087837;28;20028;-62
2021/09/09 10:51:01;;;;;;;4.68;3.60;;;;;;;23.90;65.06;100391.19;5088152;28;20127;-63
2021/09/09 10:53:41;;;;;;;5.53;4.03;;;;;;;23.90;64.93;100382.34;5087739;28;20028;-62
2021/09/09 10:56:10;;;;;;;4.32;3.45;;;;;;;23.93;64.96;100375.69;5070298;28;20104;-63
2021/09/09 10:58:36;;;;;;;5.35;3.95;;;;;;;23.93;65.18;100381.88;5075873;28;20067;-63
2021/09/09 11:01:02;;;;;;;4.07;3.33;;;;;;;23.92;64.94;100376.75;5062660;28;20024;-62
2021/09/09 11:03:47;;;;;;;5.88;3.80;;;;;;;23.87;65.04;100377.47;5088183;28;20052;-62
2021/09/09 11:06:19;;;;;;;4.45;3.58;;;;;;;23.90;65.15;100377.81;5063312;28;20083;-62
2021/09/09 11:08:48;;;;;;;5.22;3.75;;;;;;;23.93;64.91;100383.72;5059120;28;20159;-62
2021/09/09 11:11:15;;;;;;;4.25;3.58;;;;;;;23.93;64.78;100378.38;5088756;28;20031;-62
2021/09/09 11:13:41;;;;;;;4.25;3.47;;;;;;;23.93;64.59;100383.72;5064933;28;20033;-63
2021/09/09 11:16:18;;;;;;;3.70;3.05;;;;;;;23.90;64.79;100385.84;5090329;28;20127;-62